Milan/Linate, Italy

5:05 PM CEST on April 24, 2017 (GMT +0200)
Linate | | Change Station

Elev 338 ft 45.43 °N, 9.28 °E | Updated 15 minutes ago

Mostly Cloudy
Mostly Cloudy
63 °F
Feels Like 63 °F
N
4
Wind Variable Wind from ENE

Today
High -- | Low -- °F
--% Chance of Precip.
Yesterday
High -- | Low -- °F
Precip. -- in
Pressure 30.04 in
Visibility 6.2 miles
Clouds Few 3000 ft
Mostly Cloudy 6000 ft
Dew Point 46 °F
Humidity 55%
Rainfall 0.00 in
Snow Depth Not available.
6:22 AM 8:20 PM
Waning Crescent, 5% visible
METAR LIML 241450Z 07003KT 010V160 9999 FEW030 BKN060 17/08 Q1017 NOSIG
Pressure 30.04 in
Visibility 6.2 miles
Clouds Few 3000 ft
Mostly Cloudy 6000 ft
Dew Point 46 °F
Humidity 55%
Rainfall 0.00 in
Snow Depth Not available.
6:22 AM 8:20 PM
Waning Crescent, 5% visible
METAR LIML 241450Z 07003KT 010V160 9999 FEW030 BKN060 17/08 Q1017 NOSIG

Get Severe Weather Alerts

Thanks for signing up!

Be on the lookout for a verification email in your inbox.

You'll start receiving the daily forecast at 8 AM.

×

10-Day Weather Forecast

×

Almanac

Astronomy

Apr. 24, 2017 Rise Set
Actual Time
Civil Twilight
Nautical Twilight
Astronomical Twilight
Moon
Length of Visible Light
Length of Day
Tomorrow will be .
, % of the Moon is Illuminated

Today's Extremes

Country Highs Country Lows

Community

WunderPhotos

WunderBlog® & News

Nearby

Air Quality

  Air Quality AQ Index Pollutant
Not available.

Snow Depth

Station Depth Elevation

Earthquake Activity

City Distance Mag. Time & Date
Minimum magnitude displayed is 2.5.

Coastal Water Temperatures

Place Temperature

Stations

Nearby Weather Stations

Station Location Temp. Windchill Dew Point Humidity Wind Precip. Elev Updated Type